This site, now in its 15th season, is a labour of love and fun from one of Ottawa's most avid time trialists and number crunchers. It adheres to and is permitted by the laws of Canada, promotes the objectives of every bicycle club whose results are shown, and is donated free of charge by myself for your enjoyment and usage. If you would like results from series you ride in to be shown here, give me (celia@drmath.ca) a shout!


Index Page
ATT OTT WTT AATT CFCTT VVVTT
Help resultformat:
Case-sensitive

OBC Open TT Series - 2009-Jun-11 - 15km (Rockliffe Pkwy) (EvtFactor = 0.9558)

Weather (18:00): Mostly Cloudy. Temp.: 22C, Humidity: 60%, Dew Point: 14C, Wind: E 9km/h, Pressure: 100.9kPa, Vis: 24km, Humidex: 25.
Weather (19:00): Cloudy. Temp.: 22C, Humidity: 62%, Dew Point: 14C, Wind: E 5km/h, Pressure: 100.9kPa, Vis: 24km, Humidex: *.
Weather (20:00): Cloudy. Temp.: 21C, Humidity: 63%, Dew Point: 14C, Wind: E 5km/h, Pressure: 100.9kPa, Vis: 24km, Humidex: *.

Send photos with description (when/where/what) of yourself on or off of bike to celia@drmath.ca

These results were first posted on the OBC site circa 09:30 on 2009-Jun-12 and are available here for your added pleasure and analysis.
Note that initially Sarah Coney's time was listed incorrectly as 24:10.


Two great TT weeks in a row, as measured by the high EvtFactor! Warren MacDonald took another 8 seconds off of the men's course record. Sue Schlatter, out for the first time this season, also improved upon her best - by 9 seconds. She is now only 15 seconds off of the women's course record, which was set by New Zealand professional rider Meshy Holt back on 2002-Jul-18. It is particularly interesting to see how Sue, at about double Meshy Holt's age when Meshy set the women's record, compares with respect to the age handicapping method currently used in the OBC. Note that Warren and Sue were the only two riders to also improve upon the database category records tonight. The rest of us did well too. Out of the 78 who had ridden previously in the 2009 OTT series, 4 tied and 54 improved upon their previous season-series best - with 14 of those upping their cube speed by more than 10%! As well, 2 equalled and 29 bettered their previous database best 15km, with 9 of those improving their cube speed by more than 10%. It is still only early June, and some of the legs may have still been tired from Rideau Lakes, so many more improvements are expected this season.

 
 

BESTS?
 
1 MacDonald, Warren  OBC/EMD 18:24 48.913 1/95 VAM 1/10 1.0952
2 Fillion, Aaron  OBC 18:50 47.788 2/95 VAM 2/10 1.0486
3 Nash, Michael  OBC/RWR 19:09 46.997 3/95 VBM 1/19 0.9818
4 Rendall, Glen  RWR 19:19 46.592 4/95 VBM 2/19 1.0608
5 Datars, Paul  OBC/RWR 19:40 45.763 5/95 VCM 1/13 1.0596
6 Devisscher, Thomas --- 19:47 45.493 6/95 SEM 1/15 0.9899
7 Martel, Brad RWR 19:49 45.416 7/95 VBM 3/19 1.0101
8 van den Ham, Douglas  OBC/EMD 20:03 44.888 8/95 VAM 3/10 1.0715
9 Schlatter, Sue  EMD 20:21 44.226 9/95 VBF 1/11  
10 Graves, Kevin WQW 20:29 43.938 10/95 SEM 2/15  
11 Tsilemos, Jim RWR 20:31 43.867 11/95 VBM 4/19 1.0826
12 Cataford, Alex OBC 20:36 43.689 12/95 CAM 1/2 1.0000
Sudac, Rick  OBC/RWR 20:36 43.689 12/95 VDM 1/7 0.9927
14 Parniak, Robert  --- 20:38 43.619 14/95 VAM 4/10 1.1875
15 Zuliani, Greg RWR 20:45 43.373 15/95 SEM 3/15 1.0489
16 Plaunt, Grahame OBC 20:47 43.304 16/95 VAM 5/10 1.2353
17 Orange, Robert RWR 21:05 42.688 17/95 VBM 5/19 1.0311
Reid, Chris  RWR 21:05 42.688 17/95 SEM 4/15 1.0903
19 Burge, Craig  WQW 21:08 42.587 19/95 VBM 6/19  
20 Newell, Nicholas --- 21:13 42.419 20/95 SEM 5/15  
21 Sugden, David RDO 21:15 42.353 21/95 VBM 7/19 1.0576
22 Zappe, Erich RWR 21:16 42.320 22/95 VBM 8/19 1.0000
23 Diaz, Rodrigo  OBC/EUR 21:23 42.089 23/95 VAM 6/10 0.9860
24 Cameron, Allen  OBC/RWR 21:24 42.056 24/95 VCM 2/13 1.0188
25 Morvan, Jacques  OBC 21:27 41.958 25/95 VDM 2/7 1.0643
26 Gerrard, David  OBC 21:30 41.860 26/95 VBM 9/19 1.0689
27 Wright, Sean CYC 21:35 41.699 27/95 VBM 10/19 1.0423
28 Armstrong, Brian OBC 21:42 41.475 28/95 VBM 11/19 1.0829
29 McKay, Allison  OBC/RDO 21:44 41.411 29/95 VBF 2/11 1.0069
30 Beard, Duncan WQW 21:46 41.348 30/95 SEM 6/15  
Farish, Neil  OBC/RWR 21:46 41.348 30/95 VCM 3/13 0.9886
32 Mullington, Chris WQW 21:50 41.221 32/95 VCM 4/13 0.9728
33 Matte, Sophie  CYC 21:51 41.190 33/95 VAF 1/5 1.0798
Spooner, Tricia  --- 21:51 41.190 33/95 VAF 1/5  
35 Labelle, Marc-Antoine OBC 21:52 41.159 35/95 CAM 2/2 0.9841
36 Budgell, Glen  OBC 22:11 40.571 36/95 VCM 5/13 0.9512
37 Chedore, Paul ULT 22:13 40.510 37/95 VAM 7/10 0.9513
38 Moerman, Bram  OBC 22:15 40.449 38/95 VDM 3/7 0.9319
39 Orange, Kiernan RWR 22:19 40.329 39/95 JUM 1/1 0.9822
40 Kerckhoff, Hermann  RWR 22:22 40.238 40/95 VEM 1/2 1.0112
41 Posthuma, Hans  OBC 22:26 40.119 41/95 VCM 6/13 1.0247
42 Schuck, Peter  OBC 22:35 39.852 42/95 VCM 7/13 0.9606
43 Michel, Alexandre  WQW 22:37 39.794 43/95 VAM 8/10 1.1052
44 Brunet, Chris EUR 22:40 39.706 44/95 SEM 7/15  
Kelk, Indrek --- 22:40 39.706 44/95 VBM 12/19  
46 Boulanger, Gaetan  OBC 22:44 39.589 46/95 VDM 4/7 1.0110
47 Mellon, Alyssa  OBC 22:45 39.560 47/95 VAF 3/5  
48 Hess, Detlef OBC 22:56 39.244 48/95 VCM 8/13 1.0021
49 Page, Graham OBC 22:59 39.159 49/95 SEM 8/15 1.2538
50 Blagdon, Wendy  CYC 23:02 39.074 50/95 VBF 3/11 1.0779
51 Young, Paul  OBC 23:07 38.933 51/95 VBM 13/19 1.0350
52 Stec, Artur OBC 23:08 38.905 52/95 VBM 14/19 1.0065
Vipond, Nicholas --- 23:08 38.905 52/95 SEM 9/15 1.1855
Y 54 Coney, Sarah OBC 23:10 38.849 54/95 SEF 1/4 1.0662
55 Burdett, Avery  OBC 23:16 38.682 55/95 VEM 2/2 0.8824
Samborski, Mike --- 23:16 38.682 55/95 VAM 9/10 1.6422
57 Coney, Michael OBC 23:22 38.516 57/95 VDM 5/7 1.0000
58 Cheney, Paul OBC 23:23 38.489 58/95 VDM 6/7  
Wilkins, Carl  OBC 23:23 38.489 58/95 SEM 10/15 1.2245
60 Marleau, Dianne  OBC/RWR 23:26 38.407 60/95 VBF 4/11 1.0677
61 Dorego, Jean-Louis OBC 23:32 38.244 61/95 VCM 9/13 0.9852
62 Medaglia, Tyler OBC 23:34 38.190 62/95 SEM 11/15 1.0431
63 Grace, Darrin  --- 23:35 38.163 63/95 VBM 15/19 1.0214
64 Deavy, Carol  OBC 23:36 38.136 64/95 VBF 5/11 0.9937
65 Robitaille, Brian  OBC 23:37 38.109 65/95 VBM 16/19 1.0106
66 Humphreys, Les  OBC/ABC 23:47 37.842 66/95 VDM 7/7  
67 Forsyth, Scott OBC 23:51 37.736 67/95 VCM 10/13  
68 Saint-Arnaud-Watt, Chloe OBC 23:53 37.683 68/95 SEF 2/4 1.4024
69 Burge, Larry  OBC 23:56 37.604 69/95 VBM 17/19 0.9406
Henry, Mike --- 23:56 37.604 69/95 VAM 10/10 1.0402
71 Samborsky, Mark OBC 24:00 37.500 71/95 VBM 18/19 1.0813
72 Bernard, Audrey --- 24:05 37.370 72/95 CAF 1/3 1.2081
73 Momtahan, Parham  OBC 24:10 37.241 73/95 VCM 11/13  
74 Ingham, Alison  OBC/RWR 24:22 36.936 74/95 VBF 6/11 0.9536
75 Coney, Ingrid  OBC 24:28 36.785 75/95 VCF 1/3 1.0351
Gagnon, Alexandre  OBC 24:28 36.785 75/95 SEM 12/15 1.2540
77 McInnis, Celia  OBC/ABC 24:32 36.685 77/95 VCF 2/3 1.0498
78 Janusauskas, Vytas  OBC 24:35 36.610 78/95 VCM 12/13 1.0329
79 McKay, Andrea  OBC 24:38 36.536 79/95 VBF 7/11 1.0000
80 McKinnon, Carrie OBC 24:39 36.511 80/95 VBF 8/11 1.0224
81 Datars, Sally OBC 24:48 36.290 81/95 VBF 9/11 1.2177
82 Medaglia, Jeremy OBC 25:20 35.526 82/95 SEM 13/15 0.9629
83 van Zandvoort, Mike OBC 25:24 35.433 83/95 SEM 14/15 1.0119
84 Gagnon, Jules OBC 25:26 35.387 84/95 VCM 13/13 1.4876
85 Levi, Cheryl OBC 25:52 34.794 85/95 VBF 10/11  
86 Bean, Camille OBC 25:57 34.682 86/95 CAF 2/3 1.0252
87 Flynn, Emily  RWR 26:26 34.048 87/95 CAF 3/3  
88 McLaren, Louise  OBC 26:49 33.561 88/95 VBF 11/11 0.9523
89 Jardine, Karen  OBC 27:20 32.927 89/95 VCF 3/3 0.9728
90 McLaughlin, Lindsey OBC 27:34 32.648 90/95 SEM 15/15 1.0553
91 Dalton, Jennifer OBC 27:36 32.609 91/95 SEF 3/4 1.2212
92 Becker, Jennifer OBC 29:29 30.526 92/95 VAF 4/5  
93 Lansing, Melissa  CYF 29:45 30.252 93/95 SEF 4/4 1.0582
94 Johnson, Laura  OBC/CYF 30:29 29.524 94/95 VAF 5/5 1.1052
95 Plouffe, Yves OBC DNF   95/95 VBM 19/19  
 
Average Speed of all of the above 94 finishes (1410km in 35:59:19):39.179
>>>Average of the Average Speeds for these 94 finishes39.552<<<
 

The number of data records shown above is 95
The server processing of your query took: 1 wallclock secs ( 0.27 usr + 0.08 sys = 0.35 CPU)

Thanks to our Helpers: Marcel Brugger, Leona Gray, Gunter Hauschildt, Alex McKnight, Brian McLaughlin, Douglas Van Den ham.

     


Apr 10 (Good Friday)
May 5 (10km) May 7 May 12 (10km) May 14 May 19 May 19 (10km) May 21 May 26 May 26 (10km) May 28 May 31 (40km)
Jun 2 Jun 2 Jun 4 Jun 9 Jun 9
  Jun 11  
Jun 16 Jun 16 Jun 18 Jun 23 Jun 23 Jun 25 Jun 30 Jun 30
Jul 2 Jul 5 (40km) Jul 7 Jul 7 (10km) Jul 9 (10km) Jul 12 (40km) Jul 14 Jul 14 (10km) Jul 16 (10km) Jul 21 Jul 21 (10km) Jul 23 Jul 23 (10km) Jul 28 Jul 28 (10km) Jul 30 (10km)
Aug 4 (cancelled - thunder storm) Aug 4 (10km) (cancelled - thunder storm) Aug 6 (10km) Aug 9 (40km) Aug 11 Aug 11 (10km) Aug 13 (10km) Aug 18 Aug 18 (10km) Aug 20 (10km) (cancelled - construction) Aug 25 Aug 25 (Invitational) Aug 27
Sep 1 Sep 3 Sep 8 Sep 10 Sep 13 (40km) Sep 15 Sep 22 Sep 29

OTT Rankings
Best       Best by category
WTT Rankings for OBC Members
4 Best Speeds     4 Best Speeds by category
OBC Member Best Three 15km Rankings
Overall     by category     age-Hcap Female   age-Hcap Male
OBC BAR Ranking
Overall     by category     Rider "Consistency-Graph"
ABC BAR Ranking
Overall     by category     Rider "Consistency-Graph"
Other years
TT Calculator All TT People All TT events
ABC Home VVV Home
CKAP GOLD MEDAL
Other Links

Note: OTT data from 2003 through 2006-Apr-14 and 2007-Apr-06-? and WTT from 2008-? is taken from the official OBC site.

Please send your comments and suggestions to: Celia McInnis
Copyright © 1998-2011 Celia McInnis. All rights reserved. Links are welcomed.